Date,TemperatureHighF,TemperatureAvgF,TemperatureLowF,DewpointHighF,DewpointAvgF,DewpointLowF,HumidityHigh,HumidityAvg,HumidityLow,PressureMaxIn,PressureMinIn,WindSpeedMaxMPH,WindSpeedAvgMPH,GustSpeedMaxMPH,PrecipitationSumIn
2013-1-1,80,73,61,63,61,58,90,66,55,30.18,30.03,13,4,13,0.00
2013-1-2,83,70,57,69,64,56,99,83,56,30.07,29.96,11,2,11,0.00
2013-1-3,83,73,64,70,67,62,97,82,64,30.11,30.00,10,2,10,0.08
2013-1-4,82,72,64,72,68,63,99,88,71,30.20,30.08,9,2,9,0.06
2013-1-5,77,69,64,71,67,63,99,95,79,30.23,30.14,8,1,8,0.31
2013-1-6,83,73,62,73,69,62,99,88,72,30.17,30.04,11,2,11,0.01
2013-1-7,79,71,66,71,69,65,99,92,75,30.14,30.04,8,2,9,0.19
2013-1-8,84,76,70,75,72,69,97,87,74,30.19,30.05,14,4,14,1.15
2013-1-9,84,79,74,74,72,70,93,80,71,30.26,30.14,13,6,13,0.01
2013-1-10,83,77,74,70,68,64,85,74,57,30.27,30.17,14,6,14,0.00
2013-1-11,82,76,73,72,69,67,88,79,68,30.24,30.13,13,5,13,0.01
2013-1-12,84,76,71,70,68,65,84,74,61,30.16,30.07,11,5,11,0.01
2013-1-13,84,76,72,70,66,62,84,72,60,30.11,30.05,14,5,14,0.00
2013-1-14,82,76,70,68,66,62,83,72,59,30.15,30.09,13,4,13,0.00
2013-1-15,83,76,71,69,67,63,85,74,60,30.12,29.61,12,4,12,0.00
2013-1-16,84,74,62,71,67,60,97,80,62,30.08,29.99,10,2,10,0.00
2013-1-17,82,71,60,72,67,53,99,86,70,30.06,29.94,14,3,14,0.57
2013-1-18,74,65,53,62,54,47,80,70,59,30.20,30.06,14,5,14,0.01
2013-1-19,73,69,65,70,65,60,99,87,70,30.19,30.08,9,2,9,0.73
2013-1-20,81,71,62,71,67,62,99,87,70,30.12,29.99,12,2,12,0.03
2013-1-21,81,70,64,71,67,63,99,90,72,30.07,29.96,8,2,9,0.25
2013-1-22,78,68,62,64,59,52,98,75,56,30.22,29.99,15,5,15,0.01
2013-1-23,78,68,58,60,55,52,89,65,47,30.30,30.20,15,4,15,0.00
2013-1-24,78,65,56,56,52,42,92,66,37,30.29,30.20,13,3,13,0.00
2013-1-25,80,65,54,61,56,50,92,73,46,30.29,30.18,10,2,10,0.00
2013-1-26,81,68,57,61,57,52,96,72,46,30.26,30.17,10,2,10,0.00
2013-1-27,82,70,58,63,60,57,97,73,49,30.29,30.20,11,3,11,0.00
2013-1-28,83,75,71,69,65,61,85,72,58,30.32,30.23,13,6,13,0.00
2013-1-29,81,74,70,71,68,66,94,82,70,30.23,30.13,13,4,13,0.24
2013-1-30,81,75,71,69,67,63,91,77,65,30.13,29.97,14,5,14,0.00
2013-1-31,72,66,55,70,59,40,98,78,51,30.21,29.94,13,3,13,0.00
2013-2-1,76,62,51,57,49,39,80,63,49,30.27,30.16,15,5,15,0.00
2013-2-2,79,63,53,54,48,37,92,62,41,30.26,30.12,12,2,12,0.00
2013-2-3,78,61,49,54,48,40,99,67,29,30.17,30.07,13,2,13,0.00
2013-2-4,78,61,46,55,48,40,92,65,31,30.14,30.03,12,1,12,0.00
2013-2-5,80,66,50,64,57,49,99,76,49,30.08,30.00,12,2,12,0.00
2013-2-6,82,70,58,68,63,57,99,79,60,30.11,30.02,8,2,10,0.00
2013-2-7,83,75,70,70,66,62,81,73,60,30.08,29.93,10,4,10,0.00
2013-2-8,86,73,65,71,66,59,97,80,48,30.03,29.91,11,3,11,0.00
2013-2-9,83,72,63,68,64,60,99,79,53,30.18,30.01,13,4,13,0.00
2013-2-10,79,72,70,64,62,60,75,69,59,30.27,30.17,14,6,14,0.00
2013-2-11,82,74,69,67,64,61,79,71,60,30.23,30.11,13,5,13,0.00
2013-2-12,84,74,64,71,68,62,98,81,63,30.12,29.97,15,3,15,0.00
2013-2-13,84,75,68,74,71,67,99,86,72,30.01,29.89,15,4,15,0.00
2013-2-14,82,71,63,72,68,62,99,91,72,30.00,29.86,11,2,11,2.60
2013-2-15,74,67,63,68,65,63,99,96,80,30.02,29.93,12,2,12,0.74
2013-2-16,74,65,53,64,57,43,99,77,47,30.08,29.87,14,5,16,0.00
2013-2-17,62,52,43,44,29,16,71,45,21,30.49,30.08,16,6,16,0.00
2013-2-18,72,59,45,57,45,31,71,59,43,30.32,30.21,12,5,12,0.00
2013-2-19,81,72,61,67,61,52,92,68,56,30.20,30.08,14,5,14,0.02
2013-2-20,82,71,61,69,65,48,99,84,59,30.12,30.01,10,2,10,0.01
2013-2-21,85,74,64,70,67,62,97,80,59,30.10,29.99,10,3,10,0.00
2013-2-22,84,77,72,74,70,67,90,82,69,30.10,30.01,13,6,13,0.00
2013-2-23,84,76,70,74,71,68,97,84,70,30.05,29.92,16,5,16,0.98
2013-2-24,88,77,70,75,72,68,99,86,56,30.00,29.90,9,3,9,0.01
2013-2-25,85,76,66,75,71,66,99,87,72,29.92,29.81,14,3,14,0.00
2013-2-26,85,78,75,75,72,70,94,83,69,29.89,29.80,17,6,17,0.00
2013-2-27,80,71,62,74,66,61,99,85,55,29.96,29.86,9,3,9,0.79
2013-2-28,74,64,57,64,54,45,99,72,38,30.00,29.90,9,3,9,0.00
2013-3-1,69,62,58,56,50,46,81,66,47,29.99,29.90,8,2,9,0.00
2013-3-2,70,58,48,49,42,35,84,56,37,30.03,29.95,15,4,15,0.00
2013-3-3,66,54,47,43,41,38,84,62,40,30.14,29.96,14,4,14,0.00
2013-3-4,69,53,39,45,37,29,89,58,24,30.21,30.12,13,4,13,0.00
2013-3-5,77,62,44,58,52,42,95,72,50,30.18,30.08,12,3,12,0.00
2013-3-6,81,65,52,65,52,33,96,66,24,30.09,29.94,15,6,15,0.00
2013-3-7,72,54,46,56,41,35,80,62,45,30.16,30.07,10,5,11,0.00
2013-3-8,76,63,50,54,51,45,97,68,36,30.20,30.11,12,3,12,0.00
2013-3-9,79,65,51,58,53,48,95,68,46,30.19,29.51,13,4,13,0.00
2013-3-10,80,72,66,61,56,52,75,60,46,30.17,30.07,15,5,15,0.00
2013-3-11,81,72,68,63,61,59,76,67,50,30.12,29.96,13,6,13,0.00
2013-3-12,82,74,70,72,66,62,87,76,67,30.00,29.91,14,6,14,0.00
2013-3-13,78,66,56,66,56,44,96,72,36,30.12,29.97,13,4,13,0.00
2013-3-14,74,61,53,53,48,41,94,65,33,30.20,30.08,18,5,18,0.00
2013-3-15,76,63,50,56,51,44,85,67,47,30.25,30.15,12,4,12,0.00
2013-3-16,79,65,51,58,53,50,99,70,41,30.19,30.09,13,2,13,0.00
2013-3-17,80,69,56,62,58,53,93,71,53,30.15,30.03,12,3,12,0.00
2013-3-18,83,73,67,71,66,61,97,80,63,30.08,29.96,16,4,16,0.72
2013-3-19,81,72,66,71,68,65,97,88,65,30.01,29.83,9,2,12,0.01
2013-3-20,84,72,61,73,66,58,99,83,59,29.97,29.80,13,2,13,0.00
2013-3-21,75,62,52,62,56,47,94,82,40,29.95,29.82,10,3,10,0.00
2013-3-22,80,66,49,70,58,47,98,78,54,30.01,29.90,12,3,12,0.02
2013-3-23,86,77,70,76,73,69,97,86,70,29.99,29.80,14,4,14,0.02
2013-3-24,93,80,72,74,72,67,96,78,50,29.89,29.67,20,6,20,0.21
2013-3-25,84,74,64,73,60,35,97,66,30,29.98,29.74,12,3,12,0.05
2013-3-26,73,62,51,41,36,29,57,40,22,30.21,29.98,14,6,14,0.00
2013-3-27,71,57,44,100,41,30,83,55,37,30.25,30.17,15,4,15,0.00
2013-3-28,75,61,48,51,45,33,85,58,27,30.27,30.18,13,3,13,0.00
2013-3-29,79,65,50,54,50,42,81,60,38,30.29,30.20,12,3,12,0.00
2013-3-30,80,70,61,55,52,49,70,55,37,30.27,30.17,12,4,12,0.00
2013-3-31,83,74,65,67,62,54,84,68,55,30.20,30.05,13,5,13,0.00
2013-4-1,91,77,69,73,67,61,91,75,40,30.06,29.94,17,4,17,0.09
2013-4-2,85,74,65,69,66,64,98,78,53,30.08,29.99,10,3,10,0.00
2013-4-3,86,78,72,72,69,67,87,77,61,30.07,30.00,13,5,13,0.00
2013-4-4,86,76,68,74,71,67,97,85,68,30.05,29.91,15,5,15,0.94
2013-4-5,73,69,65,72,67,64,98,93,85,29.98,29.82,12,4,12,0.60
2013-4-6,82,69,58,68,62,57,98,80,56,30.21,29.91,14,5,14,0.01
2013-4-7,83,75,70,66,63,61,77,68,56,30.14,30.02,13,5,13,0.00
2013-4-8,85,74,59,66,62,56,95,68,50,30.14,30.04,10,3,10,0.00
2013-4-9,86,77,73,71,68,65,84,74,56,30.16,30.05,13,6,13,0.00
2013-4-10,87,79,73,75,71,66,86,78,65,30.10,30.00,14,6,14,0.00
2013-4-11,86,79,75,75,73,71,90,82,69,30.02,29.90,14,7,14,0.00
2013-4-12,88,80,76,78,75,74,92,85,71,29.95,29.27,15,6,15,0.03
2013-4-13,90,77,70,76,73,68,96,88,65,29.97,29.87,12,2,12,0.97
2013-4-14,87,76,70,76,74,69,99,91,70,29.96,29.91,11,3,11,0.00
2013-4-15,90,78,70,78,74,68,98,86,62,30.06,29.93,16,3,16,1.40
2013-4-16,89,78,69,80,73,69,99,87,68,30.12,30.02,13,3,13,0.07
2013-4-17,88,79,73,71,69,67,87,73,56,30.11,30.02,13,4,13,0.00
2013-4-18,88,81,75,76,72,68,85,75,62,30.07,29.98,13,5,13,0.00
2013-4-19,89,82,77,76,74,71,90,77,60,30.05,29.97,15,6,15,0.01
2013-4-20,90,78,72,78,74,70,98,86,67,30.08,29.97,13,4,13,0.27
2013-4-21,87,78,71,76,72,70,98,83,64,30.10,29.99,13,4,13,0.00
2013-4-22,86,75,70,74,70,68,97,86,62,30.05,29.93,10,3,10,0.56
2013-4-23,87,76,67,70,66,61,98,74,54,30.09,29.95,15,5,15,0.00
2013-4-24,88,79,72,67,64,60,76,62,48,30.14,30.03,12,4,12,0.00
2013-4-25,86,78,71,65,63,60,75,61,47,30.20,30.08,9,4,11,0.00
2013-4-26,87,77,69,68,65,61,79,66,52,30.26,30.12,14,4,14,0.00
2013-4-27,88,78,72,68,65,60,75,63,47,30.21,30.09,12,5,12,0.00
2013-4-28,88,79,73,66,64,61,74,61,45,30.12,30.00,13,6,13,0.00
2013-4-29,102,79,74,72,68,62,83,70,53,30.04,29.94,13,5,13,0.00
2013-4-30,88,77,70,74,71,68,98,81,61,30.00,29.92,10,3,15,0.73
2013-5-1,87,75,70,78,71,69,98,87,67,30.00,29.92,10,2,10,0.43
2013-5-2,80,73,68,74,71,68,99,94,79,29.94,29.80,16,4,16,2.70
2013-5-3,88,75,69,73,70,68,99,86,57,29.81,29.67,10,4,10,2.79
2013-5-4,92,77,67,72,69,66,99,78,50,29.79,29.68,10,3,11,0.01
2013-5-5,88,75,62,70,62,51,96,68,33,29.93,29.75,11,4,11,0.00
2013-5-6,88,72,55,65,59,52,97,68,42,30.01,29.91,8,2,9,0.00
2013-5-7,89,74,60,67,61,55,86,65,40,30.06,29.40,13,4,13,0.00
2013-5-8,89,75,61,66,62,57,96,67,39,30.14,30.03,10,2,10,0.00
2013-5-9,90,78,63,74,68,60,92,72,54,30.14,30.06,11,3,11,0.00
2013-5-10,90,82,74,76,73,69,88,76,56,30.13,30.02,12,4,12,0.00
2013-5-11,90,80,72,77,74,70,99,84,65,30.08,29.98,13,4,13,0.01
2013-5-12,90,78,70,77,72,69,99,85,58,30.06,29.94,13,2,13,1.24
2013-5-13,90,78,70,74,70,66,99,78,47,30.08,29.99,13,3,13,0.00
2013-5-14,86,78,73,67,61,56,78,56,42,30.18,30.07,14,6,14,0.00
2013-5-15,87,78,71,66,62,56,70,58,43,30.19,30.09,12,5,12,0.00
2013-5-16,88,78,70,66,62,58,72,59,46,30.12,30.04,12,4,12,0.00
2013-5-17,90,80,72,75,70,63,87,73,59,30.09,30.01,10,4,12,0.00
2013-5-18,89,80,72,76,73,70,98,79,62,30.11,25.63,13,4,13,0.05
2013-5-19,90,82,75,73,71,67,85,70,54,30.10,30.00,10,4,10,0.00
2013-5-20,82,76,69,76,73,68,98,90,77,30.08,29.98,11,3,11,3.04
2013-5-21,86,76,69,76,72,68,99,89,64,30.05,28.83,14,4,14,0.21
2013-5-22,87,78,73,76,73,70,96,85,64,29.98,29.89,12,3,12,0.48
2013-5-23,99,83,76,77,74,65,97,76,35,30.00,29.93,10,3,10,0.00
2013-5-24,93,84,75,78,75,69,99,76,48,30.05,29.94,9,3,13,0.00
2013-5-25,89,81,71,75,69,64,96,69,47,30.16,30.04,13,5,14,0.08
2013-5-26,89,81,74,69,65,56,77,61,49,30.18,30.10,13,5,13,0.00
2013-5-27,89,80,74,74,70,63,88,71,60,30.16,30.07,14,5,14,0.00
2013-5-28,85,79,75,76,73,72,94,83,69,30.12,30.04,13,6,14,0.30
2013-5-29,84,76,70,76,73,69,99,90,67,30.09,30.02,18,6,18,4.94
2013-5-30,84,78,72,77,73,69,95,84,71,30.08,30.01,20,8,20,0.32
2013-5-31,88,80,75,78,75,70,97,86,71,30.06,30.00,18,6,18,0.52
2013-6-1,88,78,73,79,76,73,99,92,73,30.03,29.96,11,2,11,1.87
2013-6-2,91,80,71,81,75,34,99,86,63,30.00,29.92,11,2,11,0.00
2013-6-3,89,80,72,78,75,71,99,86,69,30.03,29.91,10,2,10,0.09
2013-6-4,86,80,73,78,76,73,99,89,73,30.05,29.95,7,1,7,0.03
2013-6-5,86,82,79,80,77,75,91,87,78,30.02,29.90,9,3,9,0.04
2013-6-6,81,80,76,79,78,74,99,94,88,29.91,29.80,13,7,14,0.88
2013-6-7,92,78,74,80,75,73,99,91,64,29.98,29.83,12,3,12,0.71
2013-6-8,89,79,73,82,77,73,99,93,78,30.10,29.96,9,2,9,0.59
2013-6-9,91,84,79,79,77,75,92,79,66,30.12,30.04,10,6,12,0.00
2013-6-10,94,85,80,80,78,76,89,79,64,30.09,30.01,13,5,13,0.00
2013-6-11,93,84,80,80,78,75,92,82,62,30.09,29.35,11,4,11,0.00
2013-6-12,95,82,76,81,77,75,99,86,62,30.08,30.02,7,1,10,0.00
2013-6-13,93,82,74,80,75,71,99,82,61,30.05,29.94,10,2,10,0.00
2013-6-14,98,83,75,78,74,71,99,77,47,29.97,29.88,11,3,11,0.00
2013-6-15,94,84,74,78,76,73,99,77,58,30.05,29.92,9,3,9,0.00
2013-6-16,95,85,74,80,77,73,99,78,59,30.09,30.02,11,3,11,0.00
2013-6-17,95,86,77,80,77,74,92,75,59,30.08,30.01,13,4,13,0.00
2013-6-18,94,86,78,78,77,74,92,75,59,30.07,29.99,13,4,13,0.00
2013-6-19,94,85,76,81,77,74,99,79,61,30.05,29.99,12,3,12,0.01
2013-6-20,94,84,74,78,75,69,89,75,57,30.09,30.02,13,3,13,0.00
2013-6-21,95,86,79,77,75,74,86,71,56,30.13,30.03,13,5,13,0.00
2013-6-22,95,86,79,77,75,73,85,70,53,30.11,30.04,10,5,10,0.00
2013-6-23,93,85,80,79,75,71,85,74,59,30.22,30.05,13,6,13,0.05
2013-6-24,95,86,80,78,75,72,81,70,55,30.17,30.08,13,6,13,0.00
2013-6-25,94,85,78,80,76,72,94,77,60,30.13,30.05,13,6,13,0.06
2013-6-26,94,85,79,78,76,73,89,75,56,30.08,30.01,13,5,13,0.03
2013-6-27,93,83,77,80,76,73,94,80,61,30.06,29.95,10,2,10,0.30
2013-6-28,93,82,74,78,75,71,99,81,55,29.99,29.86,13,3,13,0.33
2013-6-29,93,81,74,79,76,73,99,86,62,29.93,29.81,14,3,14,0.08
2013-6-30,92,81,75,79,76,72,98,85,60,29.94,29.84,14,4,14,0.35
2013-7-1,90,82,77,81,77,74,96,84,65,30.04,29.91,13,5,13,0.14
2013-7-2,93,84,76,81,78,75,97,84,68,30.11,29.98,12,5,12,0.13
2013-7-3,91,82,76,81,77,74,98,85,70,30.13,30.05,16,6,16,0.92
2013-7-4,92,85,79,80,77,74,90,79,65,30.15,30.07,13,7,13,0.09
2013-7-5,89,82,75,80,77,33,99,84,69,30.15,30.06,14,7,14,1.27
2013-7-6,93,85,80,79,76,74,85,76,62,30.12,30.03,13,7,13,0.00
2013-7-7,94,86,80,79,76,74,87,74,61,30.10,30.03,11,5,11,0.00
2013-7-8,94,86,79,78,75,73,83,71,53,30.15,30.07,10,4,10,0.00
2013-7-9,94,83,76,77,74,71,90,74,57,30.14,30.05,12,3,12,0.08
2013-7-10,91,79,70,78,75,70,99,87,66,30.09,30.00,9,3,9,1.30
2013-7-11,92,84,75,80,76,72,98,79,64,30.05,29.94,13,3,13,0.00
2013-7-12,93,80,72,79,75,44,99,86,57,29.97,29.90,11,2,11,0.68
2013-7-13,90,76,72,80,74,72,99,94,70,30.03,24.05,9,2,9,1.10
2013-7-14,92,79,72,78,75,72,99,87,61,30.10,29.98,12,4,12,0.21
2013-7-15,91,80,72,83,75,72,99,84,62,30.09,30.01,14,3,14,1.12
2013-7-16,88,78,74,77,73,70,95,85,61,30.15,30.05,20,6,20,0.16
2013-7-17,88,80,76,77,74,72,94,83,69,30.15,29.00,9,4,9,0.07
2013-7-18,88,78,73,79,75,71,99,90,73,30.13,30.06,15,3,15,0.87
2013-7-19,91,82,73,81,77,73,99,87,69,30.13,30.05,10,3,12,0.00
2013-7-20,90,83,77,81,78,73,93,85,73,30.12,30.03,13,4,13,0.00
2013-7-21,91,82,73,81,77,72,99,87,73,30.16,30.05,10,2,10,1.40
2013-7-22,93,84,74,79,77,74,99,82,62,30.15,30.07,11,4,11,0.03
2013-7-23,93,84,77,81,77,73,96,79,60,30.11,29.97,12,4,12,0.00
2013-7-24,97,85,77,78,75,70,95,74,46,30.02,29.92,13,4,13,0.00
2013-7-25,99,86,75,78,75,72,96,73,49,30.01,29.91,9,4,10,0.00
2013-7-26,93,81,78,79,76,73,94,85,63,30.02,29.93,9,3,9,0.19
2013-7-27,92,81,76,80,76,74,97,85,63,30.00,29.93,11,2,11,0.00
2013-7-28,91,80,74,80,76,52,99,89,69,30.07,29.95,10,2,10,1.81
2013-7-29,93,83,74,81,77,74,99,85,67,30.14,30.02,12,3,12,0.24
2013-7-30,96,86,76,82,78,70,95,79,60,30.17,30.08,11,4,11,0.00
2013-7-31,94,86,80,80,77,73,89,74,59,30.12,30.01,11,5,11,0.00
2013-8-1,94,86,80,78,75,73,83,72,58,30.06,29.95,11,5,11,0.00
2013-8-2,92,81,76,78,74,72,95,82,56,30.05,29.91,9,3,9,0.13
2013-8-3,89,78,72,80,75,71,99,92,73,30.13,30.02,18,1,18,0.80
2013-8-4,92,80,74,81,76,72,99,90,67,30.11,29.98,13,2,13,0.57
2013-8-5,94,81,75,83,77,72,99,88,60,30.04,29.94,10,2,10,0.24
2013-8-6,93,83,74,81,77,74,99,84,66,29.98,29.90,9,2,9,0.00
2013-8-7,92,84,76,80,78,74,97,82,65,30.04,28.94,13,4,13,0.08
2013-8-8,94,86,81,81,77,75,86,75,60,30.02,29.93,13,6,13,0.00
2013-8-9,92,84,81,80,76,72,85,75,59,30.07,29.95,13,6,13,0.02
2013-8-10,94,86,80,80,77,75,87,76,62,30.12,30.03,12,6,12,0.00
2013-8-11,95,87,81,81,78,74,86,75,59,30.14,30.07,11,5,11,0.02
2013-8-12,95,85,76,80,76,71,90,74,59,30.11,30.01,9,3,9,0.00
2013-8-13,95,86,80,80,77,75,88,74,57,30.05,29.96,12,4,12,0.00
2013-8-14,94,85,76,78,76,16,97,75,58,30.02,29.93,13,4,13,0.00
2013-8-15,89,82,74,80,77,73,99,85,70,30.23,29.96,12,4,12,1.82
2013-8-16,94,85,78,82,79,75,97,82,66,30.05,29.98,11,3,11,0.00
2013-8-17,94,87,82,82,80,77,89,80,66,30.08,30.00,12,4,12,0.02
2013-8-18,94,86,82,81,78,76,87,78,59,30.08,30.00,11,5,11,0.01
2013-8-19,95,87,81,80,78,76,89,76,60,30.08,29.97,13,5,13,0.00
2013-8-20,95,86,78,80,77,71,95,75,61,30.07,29.98,13,5,13,0.44
2013-8-21,90,84,77,82,79,76,99,86,75,30.08,30.00,12,5,12,0.21
2013-8-22,93,86,80,82,79,74,92,79,66,30.06,29.96,12,5,12,0.00
2013-8-23,94,85,80,81,78,76,92,79,63,30.01,29.94,12,4,12,0.00
2013-8-24,95,86,77,80,77,72,96,76,60,30.10,29.97,9,3,9,0.00
2013-8-25,92,83,77,78,76,73,93,79,63,30.15,30.03,8,3,9,0.00
2013-8-26,94,82,72,79,76,72,99,83,59,30.12,30.01,12,3,15,0.98
2013-8-27,88,78,72,79,74,72,99,87,62,30.05,29.97,8,1,9,0.06
2013-8-28,93,83,75,79,75,71,96,79,62,30.04,29.95,12,3,12,0.04
2013-8-29,93,83,73,80,76,70,99,81,64,30.02,29.93,11,3,11,0.00
2013-8-30,94,84,76,78,76,73,97,77,54,30.00,29.90,12,3,12,0.00
2013-8-31,93,82,74,80,75,70,95,81,62,29.98,29.91,8,3,10,0.02
2013-9-1,93,80,72,81,76,71,99,86,70,30.00,29.93,8,1,9,0.00
2013-9-2,94,79,72,80,75,72,99,90,62,30.03,29.94,17,2,17,1.09
2013-9-3,92,81,70,82,76,70,99,85,63,30.02,29.93,8,2,9,0.02
2013-9-4,93,85,78,82,78,74,91,81,69,30.06,29.94,10,2,10,0.00
2013-9-5,94,85,79,83,79,76,97,82,67,30.07,29.99,10,3,10,0.30
2013-9-6,95,86,80,82,79,76,96,80,63,30.03,29.93,8,3,8,0.02
2013-9-7,91,80,73,80,75,71,99,87,67,29.98,29.90,11,1,11,0.10
2013-9-8,92,81,72,80,75,72,99,85,65,29.94,29.85,8,1,8,0.02
2013-9-9,92,82,72,82,76,70,99,84,64,30.20,29.89,12,3,12,2.13
2013-9-10,90,83,79,79,76,72,88,78,68,30.04,29.95,13,4,13,0.01
2013-9-11,86,80,73,80,76,71,98,86,78,30.07,29.97,14,4,14,0.62
2013-9-12,88,80,74,80,77,74,99,89,75,30.01,29.89,8,1,8,2.72
2013-9-13,91,81,72,81,76,72,99,86,71,29.91,29.80,10,2,10,0.40
2013-9-14,93,84,74,79,76,73,99,79,62,29.97,29.81,9,3,9,0.00
2013-9-15,89,81,74,80,76,71,99,84,73,30.06,29.91,15,3,15,1.00
2013-9-16,88,81,79,81,77,75,95,88,78,30.04,29.96,13,5,13,0.07
2013-9-17,82,79,74,79,76,73,99,91,84,30.04,29.92,10,4,10,1.09
2013-9-18,90,79,73,81,76,72,99,90,71,30.01,29.91,10,2,10,1.58
2013-9-19,92,82,73,80,76,72,99,83,69,30.00,29.09,12,4,12,0.00
2013-9-20,91,82,76,75,72,69,86,71,54,29.99,29.90,12,4,12,0.01
2013-9-21,91,82,74,76,72,69,86,72,59,29.91,29.78,9,3,9,0.00
2013-9-22,91,83,76,80,76,73,95,80,66,29.86,29.75,9,2,9,0.01
2013-9-23,88,81,76,80,77,74,98,88,73,29.98,29.85,13,1,13,0.10
2013-9-24,93,80,74,82,76,72,99,90,65,29.97,29.86,10,2,10,2.33
2013-9-25,91,80,72,81,75,71,98,84,59,29.90,29.78,12,3,12,0.69
2013-9-26,93,81,75,82,77,72,98,89,68,29.86,29.78,14,4,14,0.58
2013-9-27,90,80,73,77,74,69,99,82,58,29.91,29.81,13,3,13,0.00
2013-9-28,90,80,72,78,74,69,99,82,64,29.95,29.86,13,4,13,0.42
2013-9-29,90,82,73,74,71,68,87,69,56,29.96,28.83,8,3,9,0.00
2013-9-30,91,82,71,74,71,67,92,71,55,30.00,29.90,9,3,9,0.00
2013-10-1,91,84,79,77,73,71,78,70,59,30.03,29.95,10,5,10,0.00
2013-10-2,91,84,79,76,73,71,79,71,59,30.10,29.96,12,5,12,0.00
2013-10-3,91,83,78,76,73,71,84,73,58,30.05,29.95,10,3,10,0.00
2013-10-4,92,83,77,75,72,69,81,71,56,30.06,29.98,8,3,8,0.00
2013-10-5,92,79,69,75,71,66,99,77,59,30.03,29.93,10,2,10,0.00
2013-10-6,92,83,77,77,73,70,85,72,56,29.96,29.86,8,3,9,0.00
2013-10-7,95,79,73,77,73,69,99,82,47,29.90,29.80,16,3,16,0.39
2013-10-8,93,81,74,79,75,69,99,83,56,29.92,29.84,10,3,10,0.05
2013-10-9,87,78,71,77,73,68,94,84,73,29.98,29.89,12,4,12,0.00
2013-10-10,90,80,70,77,72,68,98,77,57,30.00,29.94,13,4,13,0.00
2013-10-11,89,78,67,73,68,63,99,72,52,30.01,29.93,12,3,12,0.00
2013-10-12,90,78,65,71,67,62,98,71,52,30.02,29.94,10,2,10,0.00
2013-10-13,89,79,70,71,66,61,89,67,41,30.05,29.96,13,3,13,0.00
2013-10-14,90,79,68,72,68,65,94,71,50,30.01,29.90,9,3,9,0.00
2013-10-15,90,78,70,74,70,67,97,78,60,29.95,29.87,9,3,9,0.00
2013-10-16,90,79,68,74,69,64,96,74,54,29.95,29.88,8,2,8,0.00
2013-10-17,90,81,69,74,71,66,98,73,56,29.96,29.89,8,2,8,0.00
2013-10-18,91,82,70,76,72,67,94,74,61,29.99,29.90,10,3,10,0.00
2013-10-19,90,83,77,76,73,71,82,73,59,29.96,29.88,9,4,9,0.00
2013-10-20,92,82,75,79,75,71,93,80,63,30.35,29.87,9,2,9,0.00
2013-10-21,91,83,75,78,76,71,95,79,66,30.00,29.90,13,4,13,0.00
2013-10-22,92,84,76,79,76,72,88,78,63,29.96,29.83,12,4,12,0.00
2013-10-23,93,81,75,77,73,67,93,77,57,29.95,29.81,13,3,21,0.00
2013-10-24,83,77,72,68,65,-23,79,67,58,30.09,29.93,11,3,18,0.00
2013-10-25,87,78,68,67,64,61,83,63,47,30.15,30.06,14,4,22,0.00
2013-10-26,89,78,67,65,62,58,78,59,43,30.15,30.05,14,3,22,0.00
2013-10-27,88,75,63,68,63,58,86,68,46,30.28,30.02,10,2,10,0.01
2013-10-28,89,79,72,67,64,61,72,61,44,30.14,30.04,8,2,8,0.00
2013-10-29,90,80,72,70,67,64,81,65,52,30.17,30.08,12,3,12,0.00
2013-10-30,89,80,76,70,67,64,73,64,49,30.19,30.08,11,4,11,0.00
2013-10-31,89,81,77,74,70,65,81,70,57,30.11,29.99,10,4,10,0.00
2013-11-1,89,82,78,76,73,-10,81,74,49,30.01,29.88,11,4,11,0.00
2013-11-2,93,80,70,74,69,61,98,73,44,29.93,29.79,9,2,9,0.00
2013-11-3,85,75,68,67,63,60,81,66,50,30.02,29.88,16,5,16,0.00
2013-11-4,86,78,73,68,63,57,78,61,49,30.07,30.00,17,6,17,0.00
2013-11-5,86,80,77,71,69,64,77,69,58,30.09,30.02,15,6,15,0.00
2013-11-6,88,80,71,71,68,65,81,69,54,30.12,29.99,13,4,13,0.00
2013-11-7,91,76,68,74,69,64,98,79,53,30.01,29.91,10,2,10,0.00
2013-11-8,89,76,70,73,70,66,97,83,56,30.03,29.93,16,4,16,0.91
2013-11-9,80,77,73,73,71,70,96,84,77,30.11,30.01,16,6,16,0.26
2013-11-10,88,79,76,75,71,68,82,76,64,30.12,30.04,10,4,10,0.00
2013-11-11,88,79,75,73,69,65,82,72,62,30.11,30.04,9,3,9,0.00
2013-11-12,87,78,70,71,68,65,87,72,55,30.08,29.96,9,2,9,0.00
2013-11-13,79,72,68,67,63,55,90,73,61,30.21,29.99,20,6,20,0.19
2013-11-14,82,73,69,62,58,55,67,60,49,30.25,30.15,17,5,17,0.00
2013-11-15,84,77,73,69,66,61,75,69,61,30.16,30.04,12,4,12,0.00
2013-11-16,81,78,75,75,70,66,92,77,67,30.10,30.03,12,4,12,0.18
2013-11-17,88,80,77,75,71,69,84,75,65,30.09,30.01,11,4,11,0.00
2013-11-18,88,78,72,75,71,68,92,81,65,30.04,29.93,7,1,7,0.22
2013-11-19,87,75,71,76,72,68,99,89,66,29.95,29.86,10,1,10,2.22
2013-11-20,86,76,68,77,72,68,99,88,73,30.06,29.93,8,1,8,0.26
2013-11-21,84,76,72,75,72,69,92,86,73,30.15,30.05,12,3,12,0.60
2013-11-22,84,78,74,74,71,69,88,80,69,30.17,30.08,12,4,12,0.02
2013-11-23,86,78,68,75,70,34,92,80,23,30.09,29.98,9,2,9,0.00
2013-11-24,102,70,66,70,66,63,98,88,77,30.16,29.99,18,4,18,1.00
2013-11-25,76,73,71,69,65,61,84,77,69,30.21,30.06,18,6,18,0.00
2013-11-26,84,78,73,76,72,-29,90,84,1,30.06,29.83,19,6,19,0.06
2013-11-27,126,69,56,75,65,50,96,87,73,30.12,29.79,13,3,13,0.72
2013-11-28,76,63,47,61,52,43,88,69,47,30.25,30.12,12,4,12,0.00
2013-11-29,82,72,58,62,59,54,88,65,50,30.27,30.20,15,4,15,0.00
2013-11-30,80,71,60,70,63,54,93,76,62,30.22,30.11,14,4,14,0.13
2013-12-1,83,71,63,71,66,59,94,86,67,30.11,29.94,9,2,9,2.55
2013-12-2,74,67,60,66,63,58,94,88,71,29.94,29.83,8,2,8,0.02
2013-12-3,80,70,58,65,62,56,94,78,49,30.00,29.90,8,1,8,0.00
2013-12-4,84,72,62,70,64,59,93,78,62,30.10,29.99,7,1,8,0.00
2013-12-5,84,76,66,72,68,61,89,76,67,30.17,30.08,11,2,11,0.00
2013-12-6,85,78,74,72,69,66,80,74,64,30.19,30.10,11,4,11,0.00
2013-12-7,85,75,66,74,69,62,92,82,71,30.23,30.15,10,2,10,0.06
2013-12-8,85,78,75,74,70,67,83,75,65,30.22,30.13,13,4,13,0.00
2013-12-9,85,79,74,71,69,65,81,72,57,30.21,30.11,11,4,11,0.00
2013-12-10,86,79,69,73,70,65,88,75,65,30.17,30.09,10,3,10,0.00
2013-12-11,87,75,66,75,68,64,94,81,60,30.21,30.13,7,1,7,0.00
2013-12-12,80,72,68,72,66,61,94,82,69,30.23,30.14,14,3,14,0.00
2013-12-13,82,74,69,67,63,58,77,70,59,30.21,30.11,18,4,18,0.00
2013-12-14,84,78,74,72,69,62,78,75,69,30.12,30.00,13,5,13,0.00
2013-12-15,84,77,70,74,70,65,89,80,70,30.07,29.93,12,3,12,0.00
2013-12-16,77,68,60,65,60,55,86,77,63,30.16,30.04,9,2,9,0.00
2013-12-17,81,66,57,65,57,52,92,74,51,30.19,30.11,10,2,10,0.00
2013-12-18,79,66,57,60,56,52,93,73,47,30.24,30.14,12,2,12,0.00
2013-12-19,81,70,55,63,58,52,90,68,50,30.25,30.16,11,2,11,0.00
2013-12-20,84,77,72,69,66,60,73,68,60,30.20,30.11,12,4,12,0.00
2013-12-21,85,79,76,72,69,66,76,72,65,30.16,30.07,12,5,12,0.00
2013-12-22,86,80,77,73,70,68,77,73,65,30.17,30.08,15,5,15,0.00
2013-12-23,85,78,71,73,70,64,87,75,68,30.19,30.12,11,4,11,0.00
2013-12-24,86,72,-33,73,65,-37,94,81,62,30.18,30.10,14,3,14,0.04
2013-12-25,80,74,69,67,64,62,79,72,64,30.19,30.11,14,5,14,0.00
2013-12-26,82,76,73,70,67,64,77,74,70,30.17,30.07,10,3,10,0.00
2013-12-27,86,77,73,72,68,66,79,73,64,30.20,30.10,11,4,11,0.00
2013-12-28,82,77,74,71,68,65,85,74,69,30.19,30.04,14,5,14,0.11
2013-12-29,83,78,74,73,71,69,90,79,71,30.05,29.93,12,4,12,0.00
2013-12-30,80,73,69,72,68,63,93,86,75,30.15,29.98,7,2,7,0.05
2013-12-31,82,73,68,68,64,62,83,72,58,30.23,30.11,13,4,13,0.00
2014-1-1,85,77,73,72,67,62,79,72,66,30.21,30.05,14,4,14,0.00
2014-1-2,88,78,71,71,67,64,84,69,48,30.05,29.87,13,4,13,0.00